Arivat, Canada
Current Conditions -  °F | °C
As of 4:22 AM on Tuesday 21 Oct 2014 (Local Time) from CYEK Reporting Station
Haze Haze  
Wind Chill: 20°   Ceiling: 400
Heat Index: 34°   Visibility: 4mi
Dew Point: 34°   Wind: 32mph
Humidity: 100%   Direction: 180°S
Pressure: 29.73"   Gusts: 39mph
Location:  61.11°N, 94.06°W
Report Text: CYEK 210922Z AUTO 18028G34KT 4SM BR OVC004 01/01 A2973 RMK SLP069
Loading
Personal Weather Stations






























Interactive Weather Map
Tropical Storm Tracking
New forecast layout! Learn more

10-Day Weather Forecast

Advertisements
Track Severe Weather on mobile